Time;durP1;ratioP1;P1;durP2;ratioP2;P2;SDS_P1;SDS_P2;PMS_P1;PMS_P2;Temp;Humidity;BMP_temperature;BMP_pressure;BME280_temperature;BME280_humidity;BME280_pressure;Samples;Min_cycle;Max_cycle;Signal;HPM_P1;HPM_P2
2022/10/09 00:01:21;;;;;;;3.07;2.13;;;9.90;99.90;;;;;;5031921;28;20198;-81
2022/10/09 00:03:52;;;;;;;3.50;2.10;;;9.90;99.90;;;;;;5028025;28;20174;-81
2022/10/09 00:06:26;;;;;;;4.13;2.27;;;9.90;99.90;;;;;;5033303;28;20212;-78
2022/10/09 00:08:54;;;;;;;3.30;2.10;;;9.80;99.90;;;;;;5029875;28;20210;-81
2022/10/09 00:11:25;;;;;;;4.03;1.90;;;9.80;99.90;;;;;;5028705;28;20196;-78
2022/10/09 00:13:52;;;;;;;3.60;2.20;;;9.80;99.90;;;;;;5031442;28;20259;-81
2022/10/09 00:16:24;;;;;;;4.57;2.20;;;9.80;99.90;;;;;;5026441;28;20244;-81
2022/10/09 00:18:50;;;;;;;4.30;2.10;;;9.80;99.90;;;;;;5032654;28;20213;-81
2022/10/09 00:21:22;;;;;;;3.27;1.90;;;9.80;99.90;;;;;;5032108;28;20328;-80
2022/10/09 00:23:54;;;;;;;3.63;2.30;;;9.80;99.90;;;;;;5034131;28;20170;-81
2022/10/09 00:26:20;;;;;;;3.27;2.10;;;9.80;99.90;;;;;;5034140;28;20189;-79
2022/10/09 00:28:51;;;;;;;5.07;2.57;;;9.70;99.90;;;;;;5032976;28;20205;-81
2022/10/09 00:31:17;;;;;;;3.40;1.90;;;9.80;99.90;;;;;;5035661;28;20174;-81
2022/10/09 00:33:43;;;;;;;5.63;2.00;;;9.70;99.90;;;;;;5037947;28;20185;-81
2022/10/09 00:36:11;;;;;;;3.93;2.23;;;9.70;99.90;;;;;;5038602;28;20202;-81
2022/10/09 00:38:37;;;;;;;2.07;1.87;;;9.60;99.90;;;;;;5035569;28;20183;-82
2022/10/09 00:41:05;;;;;;;3.33;2.30;;;9.60;99.90;;;;;;5039761;28;20181;-81
2022/10/09 00:43:43;;;;;;;3.60;2.33;;;9.60;99.90;;;;;;5037570;28;20297;-81
2022/10/09 00:46:27;;;;;;;4.80;2.00;;;9.50;99.90;;;;;;5037767;28;20178;-81
2022/10/09 00:49:19;;;;;;;3.80;2.20;;;9.50;99.90;;;;;;5037699;28;20178;-81
2022/10/09 00:51:47;;;;;;;3.90;2.13;;;9.40;99.90;;;;;;5026398;28;20183;-79
2022/10/09 00:54:15;;;;;;;4.30;2.20;;;9.40;99.90;;;;;;5040144;28;20213;-75
2022/10/09 00:56:43;;;;;;;2.70;2.07;;;9.40;99.90;;;;;;5037214;28;20198;-75
2022/10/09 00:59:12;;;;;;;4.00;2.47;;;9.30;99.90;;;;;;5030394;28;20197;-74
2022/10/09 01:01:41;;;;;;;3.93;2.60;;;9.40;99.90;;;;;;5036603;28;20190;-76
2022/10/09 01:04:07;;;;;;;4.50;2.50;;;9.30;99.90;;;;;;5037368;28;20194;-75
2022/10/09 01:06:57;;;;;;;2.73;2.00;;;9.30;99.90;;;;;;5037345;28;20311;-74
2022/10/09 01:09:32;;;;;;;4.57;2.20;;;9.30;99.90;;;;;;5036893;28;20178;-74
2022/10/09 01:12:11;;;;;;;2.87;2.07;;;9.20;99.90;;;;;;5037385;28;20205;-74
2022/10/09 01:14:57;;;;;;;3.17;2.00;;;9.20;99.90;;;;;;5036829;28;20265;-73
2022/10/09 01:17:42;;;;;;;3.63;2.07;;;9.20;99.90;;;;;;5030979;28;20192;-74
2022/10/09 01:20:33;;;;;;;3.93;2.00;;;9.20;99.90;;;;;;5035663;28;20206;-74
2022/10/09 01:23:17;;;;;;;2.63;1.90;;;9.10;99.90;;;;;;5020024;28;20202;-75
2022/10/09 01:25:59;;;;;;;2.77;1.80;;;9.10;99.90;;;;;;5035474;28;20189;-74
2022/10/09 01:28:27;;;;;;;2.13;1.50;;;9.10;99.90;;;;;;5037044;28;20173;-74
2022/10/09 01:30:59;;;;;;;2.30;1.83;;;9.10;99.90;;;;;;5036935;28;20332;-74
2022/10/09 01:33:26;;;;;;;2.90;1.80;;;9.10;99.90;;;;;;5035920;28;20214;-74
2022/10/09 01:35:52;;;;;;;3.37;1.73;;;9.20;99.90;;;;;;5032624;28;20193;-75
2022/10/09 01:38:22;;;;;;;2.40;1.90;;;9.10;99.90;;;;;;5034141;28;20181;-75
2022/10/09 01:40:49;;;;;;;1.97;1.57;;;9.10;99.90;;;;;;5033367;28;20205;-76
2022/10/09 01:43:15;;;;;;;2.93;1.70;;;9.10;99.90;;;;;;5034882;28;20185;-75
2022/10/09 01:45:48;;;;;;;2.03;1.70;;;9.10;99.90;;;;;;5019446;28;20182;-74
2022/10/09 01:48:22;;;;;;;2.63;1.73;;;9.10;99.90;;;;;;5036253;28;20174;-74
2022/10/09 01:50:57;;;;;;;3.17;1.80;;;9.00;99.90;;;;;;5036261;28;20192;-74
2022/10/09 01:53:26;;;;;;;2.90;1.73;;;9.00;99.90;;;;;;5019965;28;20209;-75
2022/10/09 01:56:12;;;;;;;3.47;1.77;;;9.00;99.90;;;;;;5036469;28;20180;-75
2022/10/09 01:58:49;;;;;;;3.17;1.60;;;9.00;99.90;;;;;;5035937;28;20181;-74
2022/10/09 02:01:18;;;;;;;3.03;1.60;;;9.00;99.90;;;;;;5036040;28;20221;-70
2022/10/09 02:03:47;;;;;;;2.67;1.80;;;8.90;99.90;;;;;;5034766;28;20174;-74
2022/10/09 02:06:15;;;;;;;3.20;1.73;;;8.90;99.90;;;;;;5032527;28;20189;-74
2022/10/09 02:08:45;;;;;;;2.43;1.77;;;8.80;99.90;;;;;;5031168;28;20209;-70
2022/10/09 02:11:13;;;;;;;2.77;1.40;;;8.80;99.90;;;;;;5020227;28;20174;-72
2022/10/09 02:13:40;;;;;;;3.27;1.60;;;8.70;99.90;;;;;;5023662;28;20228;-75
2022/10/09 02:16:29;;;;;;;2.77;1.67;;;8.70;99.90;;;;;;5035500;28;20220;-75
2022/10/09 02:19:07;;;;;;;3.03;1.73;;;8.70;99.90;;;;;;5023878;28;20171;-75
2022/10/09 02:21:41;;;;;;;3.40;1.63;;;8.70;99.90;;;;;;5018094;28;20206;-74
2022/10/09 02:24:12;;;;;;;1.70;1.33;;;8.60;99.90;;;;;;5035584;28;20231;-75
2022/10/09 02:26:40;;;;;;;4.17;1.80;;;8.70;99.90;;;;;;5032537;28;20182;-75
2022/10/09 02:29:06;;;;;;;1.63;1.50;;;8.60;99.90;;;;;;5029803;28;20210;-75
2022/10/09 02:31:39;;;;;;;3.70;1.60;;;8.60;99.90;;;;;;5030866;28;20181;-73
2022/10/09 02:34:10;;;;;;;3.97;1.80;;;8.50;99.90;;;;;;5030018;28;20182;-72
2022/10/09 02:36:40;;;;;;;2.57;1.67;;;8.50;99.90;;;;;;5022854;28;20318;-74
2022/10/09 02:39:06;;;;;;;3.07;1.60;;;8.50;99.90;;;;;;5025246;28;20194;-74
2022/10/09 02:41:34;;;;;;;4.03;1.83;;;8.50;99.90;;;;;;5024322;28;20174;-76
2022/10/09 02:44:03;;;;;;;2.70;1.70;;;8.50;99.90;;;;;;5044546;28;20174;-73
2022/10/09 02:46:31;;;;;;;2.30;1.80;;;8.40;99.90;;;;;;5030554;28;20217;-72
2022/10/09 02:49:00;;;;;;;2.80;1.97;;;8.50;99.90;;;;;;5018620;28;20175;-72
2022/10/09 02:51:26;;;;;;;2.80;1.90;;;8.40;99.90;;;;;;5030008;28;20178;-74
2022/10/09 02:53:52;;;;;;;2.77;1.90;;;8.40;99.90;;;;;;5042108;28;20179;-75
2022/10/09 02:56:21;;;;;;;2.37;1.80;;;8.40;99.90;;;;;;5029336;28;20205;-75
2022/10/09 02:58:47;;;;;;;3.27;2.23;;;8.40;99.90;;;;;;5030204;28;20190;-68
2022/10/09 03:01:13;;;;;;;2.00;1.70;;;8.40;99.90;;;;;;5029663;28;20194;-75
2022/10/09 03:03:43;;;;;;;3.17;1.90;;;8.30;99.90;;;;;;5030887;28;20197;-75
2022/10/09 03:06:28;;;;;;;2.33;1.57;;;8.40;99.90;;;;;;5026073;28;20209;-74
2022/10/09 03:08:56;;;;;;;2.57;1.73;;;8.30;99.90;;;;;;5029982;28;20234;-72
2022/10/09 03:11:23;;;;;;;2.20;1.70;;;8.30;99.90;;;;;;5026351;28;20170;-75
2022/10/09 03:13:49;;;;;;;2.97;1.60;;;8.30;99.90;;;;;;5028371;28;20188;-74
2022/10/09 03:16:18;;;;;;;2.43;1.90;;;8.30;99.90;;;;;;5022613;28;20247;-75
2022/10/09 03:18:44;;;;;;;3.20;1.73;;;8.30;99.90;;;;;;5042526;28;20180;-74
2022/10/09 03:21:14;;;;;;;2.47;1.77;;;8.30;99.90;;;;;;5029947;28;20182;-74
2022/10/09 03:23:40;;;;;;;2.13;1.70;;;8.30;99.90;;;;;;5028637;28;20201;-75
2022/10/09 03:26:09;;;;;;;4.50;2.10;;;8.30;99.90;;;;;;5032371;28;20221;-75
2022/10/09 03:28:41;;;;;;;2.77;2.00;;;8.30;99.90;;;;;;5025550;28;21733;-74
2022/10/09 03:31:10;;;;;;;2.90;2.07;;;8.30;99.90;;;;;;5029241;28;20313;-73
2022/10/09 03:33:36;;;;;;;3.10;1.97;;;8.30;99.90;;;;;;5029643;28;20182;-75
2022/10/09 03:36:05;;;;;;;2.57;1.93;;;8.30;99.90;;;;;;5028092;28;20384;-72
2022/10/09 03:38:31;;;;;;;4.20;2.30;;;8.30;99.90;;;;;;5045414;28;20220;-74
2022/10/09 03:40:58;;;;;;;3.40;2.20;;;8.20;99.90;;;;;;5026535;28;20234;-75
2022/10/09 03:43:24;;;;;;;3.50;2.10;;;8.20;99.90;;;;;;5026517;28;20213;-75
2022/10/09 03:45:49;;;;;;;3.17;1.87;;;8.10;99.90;;;;;;5025592;28;20187;-74
2022/10/09 03:48:15;;;;;;;2.40;1.80;;;8.10;99.90;;;;;;5027505;28;20254;-73
2022/10/09 03:50:41;;;;;;;2.80;2.10;;;8.10;99.90;;;;;;5028130;28;20186;-74
2022/10/09 03:53:11;;;;;;;3.77;2.27;;;8.00;99.90;;;;;;5029511;28;20248;-74
2022/10/09 03:55:38;;;;;;;2.60;2.00;;;8.00;99.90;;;;;;5033516;28;20215;-73
2022/10/09 03:58:03;;;;;;;4.93;1.97;;;8.00;99.90;;;;;;5009736;28;20269;-72
2022/10/09 04:00:30;;;;;;;2.40;1.83;;;8.00;99.90;;;;;;5027476;28;20292;-75
2022/10/09 04:02:55;;;;;;;2.73;1.90;;;7.90;99.90;;;;;;5027982;28;20213;-75
2022/10/09 04:05:24;;;;;;;2.33;1.77;;;7.90;99.90;;;;;;5030599;28;20209;-75
2022/10/09 04:07:52;;;;;;;1.97;1.67;;;7.90;99.90;;;;;;5025941;28;20186;-74
2022/10/09 04:10:17;;;;;;;2.37;1.80;;;7.80;99.90;;;;;;5028106;28;20335;-75
2022/10/09 04:12:46;;;;;;;3.27;1.70;;;7.90;99.90;;;;;;5033650;28;20237;-72
2022/10/09 04:15:11;;;;;;;1.80;1.63;;;7.80;99.90;;;;;;5033862;28;20181;-75
2022/10/09 04:17:37;;;;;;;4.03;2.00;;;7.80;99.90;;;;;;5034292;28;20212;-75
2022/10/09 04:20:05;;;;;;;2.50;1.70;;;7.80;99.90;;;;;;5034070;28;20212;-75
2022/10/09 04:22:31;;;;;;;2.53;1.70;;;7.80;99.90;;;;;;5026388;28;20186;-75
2022/10/09 04:24:59;;;;;;;2.53;1.60;;;7.80;99.90;;;;;;5034019;28;20185;-75
2022/10/09 04:27:27;;;;;;;3.17;1.90;;;7.70;99.90;;;;;;5030697;28;20178;-75
2022/10/09 04:29:52;;;;;;;3.00;2.10;;;7.70;99.90;;;;;;5027565;28;20229;-75
2022/10/09 04:32:18;;;;;;;2.50;1.90;;;7.70;99.90;;;;;;5026325;28;20220;-69
2022/10/09 04:34:46;;;;;;;5.60;2.30;;;7.60;99.90;;;;;;5027221;28;20277;-74
2022/10/09 04:37:11;;;;;;;4.07;3.00;;;7.60;99.90;;;;;;5028998;28;20240;-74
2022/10/09 04:39:39;;;;;;;2.87;2.50;;;7.60;99.90;;;;;;5026222;28;20234;-74
2022/10/09 04:42:05;;;;;;;3.13;2.20;;;7.60;99.90;;;;;;5025797;28;20186;-72
2022/10/09 04:44:31;;;;;;;5.30;2.50;;;7.60;99.90;;;;;;5026810;28;20245;-74
2022/10/09 04:46:57;;;;;;;2.30;2.00;;;7.60;99.90;;;;;;5029208;28;20182;-69
2022/10/09 04:49:25;;;;;;;3.87;2.80;;;7.50;99.90;;;;;;5029095;28;20268;-72
2022/10/09 04:51:50;;;;;;;4.13;2.80;;;7.50;99.90;;;;;;5024325;28;20252;-75
2022/10/09 04:54:18;;;;;;;4.03;2.87;;;7.50;99.90;;;;;;5028471;28;20190;-74
2022/10/09 04:56:46;;;;;;;3.87;3.03;;;7.60;99.90;;;;;;5037492;28;20208;-74
2022/10/09 04:59:12;;;;;;;5.47;3.00;;;7.60;99.90;;;;;;5026302;28;20206;-71
2022/10/09 05:01:37;;;;;;;3.40;2.47;;;7.50;99.90;;;;;;5027087;28;20201;-72
2022/10/09 05:04:03;;;;;;;3.50;3.03;;;7.60;99.90;;;;;;5028670;28;20194;-74
2022/10/09 05:06:28;;;;;;;4.43;3.40;;;7.60;99.90;;;;;;5025919;28;20206;-73
2022/10/09 05:08:55;;;;;;;5.70;3.77;;;7.70;99.90;;;;;;5024385;28;20190;-75
2022/10/09 05:11:23;;;;;;;4.43;3.43;;;7.70;99.90;;;;;;5027230;28;20261;-74
2022/10/09 05:13:54;;;;;;;6.63;4.30;;;7.70;99.90;;;;;;5027189;28;20182;-75
2022/10/09 05:16:22;;;;;;;6.17;4.00;;;7.70;99.90;;;;;;5027662;28;20261;-75
2022/10/09 05:18:50;;;;;;;5.73;3.93;;;7.80;99.90;;;;;;5026903;28;20181;-73
2022/10/09 05:21:20;;;;;;;4.77;3.80;;;7.80;99.90;;;;;;5023400;28;20218;-75
2022/10/09 05:23:46;;;;;;;7.03;4.30;;;7.80;99.90;;;;;;5030102;28;20253;-75
2022/10/09 05:26:14;;;;;;;5.70;3.60;;;7.90;99.90;;;;;;5030086;28;20224;-74
2022/10/09 05:28:40;;;;;;;5.83;4.20;;;7.90;99.90;;;;;;5029792;28;20181;-75
2022/10/09 05:31:06;;;;;;;16.90;11.07;;;7.90;99.90;;;;;;5027628;28;20231;-75
2022/10/09 05:33:33;;;;;;;9.33;6.47;;;8.00;99.90;;;;;;5032445;28;20194;-75
2022/10/09 05:36:03;;;;;;;8.87;5.57;;;8.00;99.90;;;;;;5030063;28;20252;-75
2022/10/09 05:38:29;;;;;;;6.23;4.50;;;8.10;99.90;;;;;;5030089;28;20182;-70
2022/10/09 05:40:58;;;;;;;5.90;4.23;;;8.10;99.90;;;;;;5025618;28;20201;-75
2022/10/09 05:43:35;;;;;;;5.60;3.93;;;8.20;99.90;;;;;;5043454;28;20183;-72
2022/10/09 05:46:17;;;;;;;5.43;3.40;;;8.20;99.90;;;;;;5029468;28;20194;-75
2022/10/09 05:48:45;;;;;;;5.20;4.20;;;8.20;99.90;;;;;;5021496;28;20174;-71
2022/10/09 05:51:15;;;;;;;6.90;3.90;;;8.20;99.90;;;;;;5035862;28;20192;-72
2022/10/09 05:53:42;;;;;;;4.50;3.37;;;8.20;99.90;;;;;;5034797;28;20257;-75
2022/10/09 05:56:17;;;;;;;5.53;3.63;;;8.20;99.90;;;;;;5017096;28;20178;-74
2022/10/09 05:58:44;;;;;;;6.43;4.20;;;8.20;99.90;;;;;;5029585;28;20256;-71
2022/10/09 06:01:10;;;;;;;6.23;3.90;;;8.20;99.90;;;;;;5029834;28;20194;-73
2022/10/09 06:03:37;;;;;;;5.40;3.67;;;8.20;99.90;;;;;;5032758;28;20209;-73
2022/10/09 06:06:04;;;;;;;3.87;3.30;;;8.30;99.90;;;;;;5024168;28;20243;-73
2022/10/09 06:08:32;;;;;;;5.47;3.30;;;8.30;99.90;;;;;;5028753;28;20185;-73
2022/10/09 06:11:06;;;;;;;4.87;3.23;;;8.30;99.90;;;;;;5028920;28;20212;-73
2022/10/09 06:13:32;;;;;;;3.90;3.07;;;8.30;99.90;;;;;;5028821;28;20188;-74
2022/10/09 06:15:58;;;;;;;3.83;3.20;;;8.30;99.90;;;;;;5030516;28;20274;-70
2022/10/09 06:18:25;;;;;;;4.07;3.40;;;8.30;99.90;;;;;;5030904;28;20178;-72
2022/10/09 06:20:59;;;;;;;4.97;3.60;;;8.40;99.90;;;;;;5027386;28;20229;-73
2022/10/09 06:23:28;;;;;;;3.73;3.00;;;8.40;99.90;;;;;;5030031;28;20201;-75
2022/10/09 06:25:59;;;;;;;4.17;3.50;;;8.40;99.90;;;;;;5026518;28;20210;-74
2022/10/09 06:28:32;;;;;;;4.00;3.33;;;8.40;99.90;;;;;;5028316;28;20209;-73
2022/10/09 06:31:15;;;;;;;4.90;3.17;;;8.40;99.90;;;;;;5030554;28;20219;-75
2022/10/09 06:33:45;;;;;;;8.43;6.47;;;8.40;99.90;;;;;;5030752;28;20244;-76
2022/10/09 06:36:13;;;;;;;5.97;4.73;;;8.40;99.90;;;;;;5036353;28;20217;-75
2022/10/09 06:38:42;;;;;;;4.87;3.83;;;8.40;99.90;;;;;;5030481;28;20193;-72
2022/10/09 06:41:13;;;;;;;6.47;3.67;;;8.40;99.90;;;;;;5042420;28;20301;-74
2022/10/09 06:43:39;;;;;;;4.37;3.57;;;8.40;99.90;;;;;;5028317;28;20187;-74
2022/10/09 06:46:10;;;;;;;4.30;3.67;;;8.40;99.90;;;;;;5029104;28;20193;-74
2022/10/09 06:48:37;;;;;;;4.33;2.97;;;8.50;99.90;;;;;;5024422;28;20178;-74
2022/10/09 06:51:04;;;;;;;4.03;3.43;;;8.50;99.90;;;;;;5029761;28;20248;-72
2022/10/09 06:53:37;;;;;;;5.60;3.90;;;8.50;99.90;;;;;;5031976;28;20263;-74
2022/10/09 06:56:03;;;;;;;5.30;3.50;;;8.50;99.90;;;;;;5034908;28;20228;-74
2022/10/09 06:58:31;;;;;;;5.10;3.70;;;8.50;99.90;;;;;;5035322;28;20292;-74
2022/10/09 07:01:18;;;;;;;4.87;3.27;;;8.60;99.90;;;;;;5035180;28;20241;-75
2022/10/09 07:03:47;;;;;;;5.33;4.13;;;8.60;99.90;;;;;;5035697;28;20166;-74
2022/10/09 07:06:31;;;;;;;6.50;4.00;;;8.60;99.90;;;;;;5035295;28;20198;-75
2022/10/09 07:09:03;;;;;;;7.23;5.43;;;8.70;99.90;;;;;;5035335;28;20182;-74
2022/10/09 07:11:41;;;;;;;6.73;4.63;;;8.60;99.90;;;;;;5035151;28;20207;-75
2022/10/09 07:14:08;;;;;;;6.80;4.33;;;8.70;99.90;;;;;;5035469;28;20178;-75
2022/10/09 07:16:40;;;;;;;6.47;4.40;;;8.70;99.90;;;;;;5024484;28;20178;-75
2022/10/09 07:19:12;;;;;;;5.67;4.20;;;8.70;99.90;;;;;;5017260;28;20356;-74
2022/10/09 07:21:41;;;;;;;5.17;3.93;;;8.80;99.90;;;;;;5015781;28;20171;-75
2022/10/09 07:24:12;;;;;;;5.60;4.13;;;8.80;99.90;;;;;;5016724;28;20198;-76
2022/10/09 07:26:41;;;;;;;6.70;4.37;;;8.80;99.90;;;;;;5035643;28;20266;-75
2022/10/09 07:29:09;;;;;;;5.57;3.90;;;8.90;99.90;;;;;;5035296;28;20229;-77
2022/10/09 07:31:35;;;;;;;4.77;3.80;;;8.90;99.90;;;;;;5035076;28;20181;-75
2022/10/09 07:34:03;;;;;;;5.30;3.83;;;8.90;99.90;;;;;;5035119;28;20189;-76
2022/10/09 07:36:34;;;;;;;5.20;3.97;;;8.90;99.90;;;;;;5034511;28;20282;-74
2022/10/09 07:38:59;;;;;;;5.37;3.77;;;8.90;99.90;;;;;;5035437;28;20170;-76
2022/10/09 07:41:27;;;;;;;7.40;4.43;;;8.90;99.90;;;;;;5021077;28;20202;-75
2022/10/09 07:43:53;;;;;;;5.90;4.07;;;8.90;99.90;;;;;;5021497;28;20261;-75
2022/10/09 07:46:23;;;;;;;7.23;4.77;;;8.90;99.90;;;;;;5029432;28;20197;-74
2022/10/09 07:48:51;;;;;;;6.90;4.70;;;9.00;99.90;;;;;;5030504;28;20235;-76
2022/10/09 07:51:25;;;;;;;6.77;5.07;;;9.00;99.90;;;;;;5029852;28;20174;-73
2022/10/09 07:53:52;;;;;;;6.40;4.30;;;9.00;99.90;;;;;;5026685;28;20177;-75
2022/10/09 07:56:23;;;;;;;6.83;4.70;;;9.10;99.90;;;;;;5031023;28;20182;-73
2022/10/09 07:58:51;;;;;;;6.23;4.33;;;9.10;99.90;;;;;;5029915;28;20213;-75
2022/10/09 08:01:21;;;;;;;7.73;4.33;;;9.20;99.90;;;;;;5027285;28;20190;-74
2022/10/09 08:03:47;;;;;;;7.30;4.50;;;9.20;99.90;;;;;;5028806;28;20206;-76
2022/10/09 08:06:16;;;;;;;5.30;4.60;;;9.20;99.90;;;;;;5026455;28;20201;-68
2022/10/09 08:08:42;;;;;;;6.23;4.53;;;9.30;99.90;;;;;;5031972;28;20285;-70
2022/10/09 08:11:18;;;;;;;6.20;4.30;;;9.30;99.90;;;;;;5031924;28;20459;-73
2022/10/09 08:13:47;;;;;;;5.33;4.03;;;9.40;99.90;;;;;;5033846;28;20205;-76
2022/10/09 08:16:18;;;;;;;5.57;4.33;;;9.50;99.90;;;;;;5021567;28;20171;-75
2022/10/09 08:18:44;;;;;;;6.17;4.70;;;9.60;99.90;;;;;;5033454;28;20194;-76
2022/10/09 08:21:14;;;;;;;5.03;4.40;;;9.70;99.90;;;;;;5033959;28;20211;-76
2022/10/09 08:23:40;;;;;;;6.20;4.57;;;9.70;99.90;;;;;;5046064;28;20207;-75
2022/10/09 08:26:13;;;;;;;6.83;4.33;;;9.80;99.90;;;;;;5033804;28;20170;-74
2022/10/09 08:28:39;;;;;;;5.27;3.90;;;9.90;99.90;;;;;;5040652;28;20185;-72
2022/10/09 08:31:15;;;;;;;4.73;3.37;;;10.10;99.90;;;;;;5034191;28;20178;-72
2022/10/09 08:33:41;;;;;;;7.20;3.73;;;10.10;99.90;;;;;;5022409;28;20181;-75
2022/10/09 08:36:13;;;;;;;4.80;3.70;;;10.20;99.90;;;;;;5031125;28;20206;-72
2022/10/09 08:38:39;;;;;;;5.43;3.80;;;10.30;99.90;;;;;;5033393;28;20188;-73
2022/10/09 08:41:09;;;;;;;5.67;4.40;;;10.50;99.90;;;;;;5027685;28;20206;-71
2022/10/09 08:43:43;;;;;;;8.90;4.60;;;10.60;99.90;;;;;;5022093;28;20178;-70
2022/10/09 08:46:21;;;;;;;5.25;3.97;;;10.70;99.90;;;;;;5021384;28;20196;-72
2022/10/09 08:48:49;;;;;;;5.83;3.87;;;10.80;99.90;;;;;;5031425;28;20205;-73
2022/10/09 08:51:22;;;;;;;4.43;3.80;;;11.00;99.90;;;;;;5029761;28;20273;-70
2022/10/09 08:54:16;;;;;;;4.93;3.40;;;11.10;99.90;;;;;;5031778;28;20181;-72
2022/10/09 08:56:42;;;;;;;4.82;3.58;;;11.20;99.90;;;;;;5024982;28;20203;-72
2022/10/09 08:59:10;;;;;;;3.75;2.80;;;11.40;99.90;;;;;;5033458;28;20212;-70
2022/10/09 09:01:57;;;;;;;4.95;3.08;;;11.50;99.90;;;;;;5029799;28;20186;-73
2022/10/09 09:04:37;;;;;;;5.93;3.40;;;11.60;99.90;;;;;;5031181;28;20243;-74
2022/10/09 09:07:17;;;;;;;3.03;2.50;;;11.80;99.90;;;;;;5034659;28;20177;-71
2022/10/09 09:10:07;;;;;;;3.53;2.58;;;11.90;99.90;;;;;;5044167;28;20178;-71
2022/10/09 09:13:05;;;;;;;4.28;2.72;;;12.10;99.90;;;;;;5028640;28;20237;-70
2022/10/09 09:15:46;;;;;;;3.88;2.80;;;12.30;99.90;;;;;;5032357;28;20216;-71
2022/10/09 09:18:23;;;;;;;3.88;2.80;;;12.90;99.90;;;;;;5030914;28;20237;-72
2022/10/09 09:21:17;;;;;;;4.80;2.67;;;13.70;99.90;;;;;;5031371;28;20272;-72
2022/10/09 09:23:46;;;;;;;4.38;2.72;;;14.60;99.90;;;;;;5029527;28;20175;-71
2022/10/09 09:26:18;;;;;;;3.60;2.40;;;15.60;99.90;;;;;;5029447;28;20183;-72
2022/10/09 09:28:44;;;;;;;5.28;2.88;;;16.30;99.90;;;;;;5031866;28;20264;-74
2022/10/09 09:31:19;;;;;;;3.75;2.85;;;17.00;99.90;;;;;;5031111;28;20201;-71
2022/10/09 09:34:08;;;;;;;2.45;2.13;;;17.70;99.90;;;;;;5045434;28;20178;-73
2022/10/09 09:36:39;;;;;;;3.45;2.40;;;18.20;99.90;;;;;;5028799;28;20170;-74
2022/10/09 09:39:10;;;;;;;2.92;2.00;;;18.80;99.90;;;;;;5032930;28;20189;-74
2022/10/09 09:41:35;;;;;;;4.28;1.75;;;19.30;99.90;;;;;;5031070;28;20195;-73
2022/10/09 09:44:01;;;;;;;2.70;1.85;;;19.70;99.90;;;;;;5026674;28;20274;-74
2022/10/09 09:46:31;;;;;;;4.18;2.03;;;20.10;99.90;;;;;;5031611;28;20262;-73
2022/10/09 09:48:59;;;;;;;4.72;2.00;;;20.50;99.90;;;;;;5033536;28;20174;-74
2022/10/09 09:51:26;;;;;;;3.35;2.00;;;20.70;99.90;;;;;;5032381;28;20179;-73
2022/10/09 09:53:55;;;;;;;2.42;1.60;;;20.90;99.90;;;;;;5037587;28;20194;-74
2022/10/09 09:56:36;;;;;;;2.55;1.67;;;21.00;99.90;;;;;;5033860;28;20281;-74
2022/10/09 09:59:06;;;;;;;3.45;1.60;;;21.20;99.90;;;;;;5037953;28;20166;-74
2022/10/09 10:01:33;;;;;;;2.67;1.70;;;21.30;99.90;;;;;;5030459;28;20217;-74
2022/10/09 10:04:03;;;;;;;2.72;1.85;;;21.40;99.90;;;;;;5035562;28;20198;-74
2022/10/09 10:06:41;;;;;;;2.22;1.33;;;21.50;99.90;;;;;;5037089;28;20186;-72
2022/10/09 10:09:14;;;;;;;3.50;1.70;;;21.50;99.90;;;;;;5019663;28;20293;-73
2022/10/09 10:12:00;;;;;;;3.33;1.50;;;21.50;99.90;;;;;;5036841;28;20184;-74
2022/10/09 10:14:30;;;;;;;2.50;1.33;;;21.40;99.90;;;;;;5038199;28;20202;-72
2022/10/09 10:16:58;;;;;;;3.35;1.60;;;21.40;99.90;;;;;;5037799;28;20201;-75
2022/10/09 10:19:27;;;;;;;2.17;1.45;;;21.40;99.90;;;;;;5036508;28;20190;-74
2022/10/09 10:22:21;;;;;;;2.95;1.40;;;21.40;99.90;;;;;;5038084;28;20214;-74
2022/10/09 10:24:49;;;;;;;2.33;1.50;;;21.40;99.90;;;;;;5030162;28;20166;-74
2022/10/09 10:27:43;;;;;;;1.92;1.30;;;21.30;99.90;;;;;;5038739;28;20200;-74
2022/10/09 10:30:14;;;;;;;3.15;1.67;;;21.30;99.90;;;;;;5037360;28;20208;-75
2022/10/09 10:33:09;;;;;;;3.15;1.50;;;21.30;99.90;;;;;;5038165;28;20189;-75
2022/10/09 10:35:37;;;;;;;2.90;1.35;;;21.10;99.90;;;;;;5008178;28;20277;-72
2022/10/09 10:38:06;;;;;;;2.67;1.40;;;20.90;99.90;;;;;;5036890;28;20182;-73
2022/10/09 10:40:41;;;;;;;1.70;1.35;;;20.80;99.90;;;;;;5026737;28;20202;-75
2022/10/09 10:43:11;;;;;;;3.22;1.50;;;20.80;99.90;;;;;;5026620;28;20263;-72
2022/10/09 10:45:55;;;;;;;2.28;1.30;;;20.80;99.90;;;;;;5033312;28;20181;-71
2022/10/09 10:48:28;;;;;;;2.30;1.40;;;20.90;99.90;;;;;;5031682;28;20189;-72
2022/10/09 10:51:06;;;;;;;2.55;1.30;;;21.00;99.90;;;;;;5030487;28;20197;-73
2022/10/09 10:53:51;;;;;;;2.30;1.30;;;21.20;99.90;;;;;;5044984;28;20208;-73
2022/10/09 10:56:30;;;;;;;2.13;1.33;;;21.40;99.90;;;;;;5046201;28;20205;-73
2022/10/09 10:59:03;;;;;;;2.00;1.10;;;21.50;99.90;;;;;;5018840;28;20174;-73
2022/10/09 11:01:41;;;;;;;1.73;1.30;;;21.60;99.90;;;;;;5032108;28;20198;-73
2022/10/09 11:04:23;;;;;;;2.78;1.48;;;21.70;99.90;;;;;;5043267;28;20193;-75
2022/10/09 11:07:20;;;;;;;2.05;1.02;;;21.90;99.90;;;;;;5033259;28;20189;-73
2022/10/09 11:10:06;;;;;;;2.30;1.20;;;22.00;99.90;;;;;;5026050;28;20248;-73
2022/10/09 11:12:49;;;;;;;1.77;1.20;;;22.10;99.90;;;;;;5031091;28;20261;-73
2022/10/09 11:15:26;;;;;;;2.63;1.48;;;22.20;99.90;;;;;;5035612;28;20209;-72
2022/10/09 11:18:23;;;;;;;2.00;1.30;;;22.30;99.90;;;;;;5031481;28;20229;-75
2022/10/09 11:20:57;;;;;;;2.35;1.25;;;22.30;99.90;;;;;;5028804;28;20213;-75
2022/10/09 11:23:28;;;;;;;1.60;1.10;;;22.40;99.90;;;;;;5032628;28;20178;-73
2022/10/09 11:25:53;;;;;;;2.30;1.13;;;22.50;99.90;;;;;;5029149;28;20277;-75
2022/10/09 11:28:31;;;;;;;2.17;1.30;;;22.50;99.90;;;;;;5032425;28;20293;-75
2022/10/09 11:31:08;;;;;;;5.10;2.92;;;22.50;99.90;;;;;;5032171;28;20261;-73
2022/10/09 11:33:53;;;;;;;2.40;1.60;;;22.50;99.90;;;;;;5029194;28;20198;-75
2022/10/09 11:36:26;;;;;;;2.88;1.60;;;22.50;99.90;;;;;;5030493;28;20178;-74
2022/10/09 11:38:57;;;;;;;2.13;1.23;;;22.50;99.90;;;;;;5030664;28;20178;-74
2022/10/09 11:41:25;;;;;;;1.65;1.20;;;22.40;99.90;;;;;;5029834;28;20213;-74
2022/10/09 11:44:00;;;;;;;2.30;1.30;;;22.40;99.90;;;;;;5031167;28;20186;-72
2022/10/09 11:46:53;;;;;;;1.38;1.00;;;22.40;99.90;;;;;;5044328;28;20280;-76
2022/10/09 11:49:22;;;;;;;3.92;1.35;;;22.50;99.90;;;;;;5041460;28;20179;-76
2022/10/09 11:52:26;;;;;;;1.73;1.00;;;22.50;99.90;;;;;;5029625;28;20170;-75
2022/10/09 11:54:54;;;;;;;2.35;1.30;;;22.60;99.90;;;;;;5020425;28;20186;-74
2022/10/09 11:57:27;;;;;;;2.15;1.05;;;22.60;99.90;;;;;;5029572;28;20181;-75
2022/10/09 12:00:09;;;;;;;2.60;1.30;;;22.60;99.70;;;;;;5046588;28;20189;-75
2022/10/09 12:02:36;;;;;;;3.65;1.30;;;22.60;97.90;;;;;;5033187;28;20185;-75
2022/10/09 12:05:29;;;;;;;2.08;1.02;;;22.60;98.90;;;;;;5030520;28;20170;-74
2022/10/09 12:08:10;;;;;;;1.77;1.20;;;22.50;97.30;;;;;;5026472;28;20197;-78
2022/10/09 12:10:40;;;;;;;2.92;1.17;;;22.20;96.40;;;;;;5028965;28;20217;-81
2022/10/09 12:13:29;;;;;;;3.30;1.15;;;22.10;97.00;;;;;;5043551;28;20193;-75
2022/10/09 12:15:56;;;;;;;4.00;1.20;;;22.00;95.70;;;;;;5033756;28;20197;-75
2022/10/09 12:18:36;;;;;;;1.70;1.10;;;22.00;97.50;;;;;;5030899;28;20235;-74
2022/10/09 12:21:09;;;;;;;1.75;1.00;;;22.00;96.40;;;;;;5026111;28;20252;-73
2022/10/09 12:23:38;;;;;;;2.50;1.30;;;22.00;95.90;;;;;;5032465;28;20184;-77
2022/10/09 12:26:09;;;;;;;1.75;1.02;;;22.00;94.70;;;;;;5031174;28;20178;-69
2022/10/09 12:28:57;;;;;;;2.83;1.25;;;22.00;95.20;;;;;;5033052;28;20194;-76
2022/10/09 12:31:34;;;;;;;1.95;1.15;;;22.00;94.40;;;;;;5036078;28;20189;-73
2022/10/09 12:34:05;;;;;;;1.73;1.13;;;22.10;95.60;;;;;;5035008;28;20317;-74
2022/10/09 12:36:32;;;;;;;2.53;1.27;;;22.10;94.60;;;;;;5035831;28;20200;-76
2022/10/09 12:39:18;;;;;;;2.15;1.13;;;22.10;94.40;;;;;;5036228;28;20213;-70
2022/10/09 12:41:46;;;;;;;2.10;1.13;;;22.10;91.50;;;;;;5029966;28;20210;-75
2022/10/09 12:44:22;;;;;;;2.53;1.55;;;22.10;93.20;;;;;;5030737;28;20205;-73
2022/10/09 12:46:48;;;;;;;1.95;1.05;;;22.00;91.50;;;;;;5030783;28;20178;-79
2022/10/09 12:49:24;;;;;;;1.60;0.90;;;21.90;92.90;;;;;;5027416;28;20252;-73
2022/10/09 12:51:55;;;;;;;3.40;1.00;;;21.90;91.80;;;;;;5029978;28;20280;-74
2022/10/09 12:54:23;;;;;;;3.47;1.40;;;21.90;92.30;;;;;;5029064;28;20265;-76
2022/10/09 12:56:51;;;;;;;3.47;1.30;;;21.90;91.60;;;;;;5036286;28;20225;-75
2022/10/09 12:59:17;;;;;;;1.90;1.00;;;21.80;91.60;;;;;;5037380;28;20178;-78
2022/10/09 13:01:45;;;;;;;1.50;1.00;;;21.80;92.00;;;;;;5030652;28;20182;-78
2022/10/09 13:04:28;;;;;;;3.90;1.35;;;21.70;91.80;;;;;;5033080;28;20178;-75
2022/10/09 13:06:55;;;;;;;3.05;1.20;;;21.70;90.00;;;;;;5033882;28;20201;-73
2022/10/09 13:09:37;;;;;;;2.38;1.00;;;21.60;90.80;;;;;;5038888;28;20202;-69
2022/10/09 13:12:22;;;;;;;2.70;1.10;;;21.60;90.20;;;;;;5044152;28;20195;-77
2022/10/09 13:14:54;;;;;;;2.58;1.10;;;21.60;89.10;;;;;;5003403;28;20202;-74
2022/10/09 13:17:38;;;;;;;1.80;1.00;;;21.60;90.20;;;;;;5050312;28;20175;-80